Terminal Aerodrome Forecast
Issued by NWS Lake Charles, LA

Home | Current Version | Previous Version | Text Only | Print | Product List | Glossary On
Versions: 1 2 3 4 5 6 7 8 9 10 11 12 13 14 15 16 17
000
FTUS44 KLCH 262000 AAA
TAFBPT
TAF AMD
KBPT 262001Z 2620/2718 20008KT P6SM VCTS SCT035CB
      TEMPO 2620/2621 VRB10G15KT 1SM -TSRA BKN025CB
     FM270100 VRB03KT P6SM SKC
     FM271500 22006KT P6SM VCSH SCT035=

USA.gov is the U.S. government's official web portal to all federal, state and local government web resources and services.